Terminal Aerodrome Forecast
Issued by NWS Twin Cities, MN

Home | Current Version | Previous Version | Graphics & Text | Print | Product List | Glossary Off
Versions: 1 2 3 4 5 6 7 8 9 10 11 12

000
FTUS43 KMPX 281120
TAFEAU
TAF
KEAU 281120Z 2812/2912 26005KT P6SM OVC040
     FM281600 31007KT P6SM BKN200
     FM290000 36005KT P6SM OVC150=

USA.gov is the U.S. government's official web portal to all federal, state and local government web resources and services.